TAF KLFK
KLFK 072320Z 0800/0824 09007KT P6SM SKC FM080100 11004KT P6SM BKN020 FM080600 VRB03KT P6SM OVC020 FM080900 VRB03KT 5SM BR BKN010 FM081800 19005KT P6SM SCT025=
METAR KLFK
SPECI KLFK 080242Z AUTO 11007KT 10SM OVC028 11/09 A3000 RMK AO2 T01110089
COR KLFK 080153Z AUTO 10005KT 10SM OVC033 11/09 A3000 RMK AO2 SLP158 T01110089
KLFK 080053Z AUTO 12005KT 10SM CLR 11/08 A2999 RMK AO2 SLP153 T01110083 ?
KLFK 072353Z AUTO 09007KT 10SM CLR 12/09 A2996 RMK AO2 SLP145 T01220089 10161 20111 56008 ?
KLFK 072253Z AUTO 09007KT 10SM CLR 14/09 A2998 RMK AO2 SLP150 T01390089 ?
WC KLFK
WS KLFK
WV KLFK